sensor_id;sensor_type;location;lat;lon;timestamp;temperature;humidity
38910;DHT22;24676;51.360;12.354;2023-07-13T00:02:10;20.70;78.50
38910;DHT22;24676;51.360;12.354;2023-07-13T00:04:54;20.70;80.10
38910;DHT22;24676;51.360;12.354;2023-07-13T00:07:38;20.60;81.30
38910;DHT22;24676;51.360;12.354;2023-07-13T00:10:23;20.50;82.50
38910;DHT22;24676;51.360;12.354;2023-07-13T00:13:07;20.50;82.70
38910;DHT22;24676;51.360;12.354;2023-07-13T00:15:52;20.50;85.40
38910;DHT22;24676;51.360;12.354;2023-07-13T00:18:37;20.60;88.90
38910;DHT22;24676;51.360;12.354;2023-07-13T00:21:22;20.60;89.60
38910;DHT22;24676;51.360;12.354;2023-07-13T00:24:07;20.50;89.90
38910;DHT22;24676;51.360;12.354;2023-07-13T00:26:51;20.50;90.20
38910;DHT22;24676;51.360;12.354;2023-07-13T00:29:37;20.50;88.90
38910;DHT22;24676;51.360;12.354;2023-07-13T00:32:21;20.50;89.10
38910;DHT22;24676;51.360;12.354;2023-07-13T00:35:06;20.50;90.80
38910;DHT22;24676;51.360;12.354;2023-07-13T00:37:50;20.40;91.20
38910;DHT22;24676;51.360;12.354;2023-07-13T00:40:34;20.30;92.00
38910;DHT22;24676;51.360;12.354;2023-07-13T00:43:21;20.30;93.80
38910;DHT22;24676;51.360;12.354;2023-07-13T00:46:20;20.30;95.30
38910;DHT22;24676;51.360;12.354;2023-07-13T00:49:06;20.30;94.20
38910;DHT22;24676;51.360;12.354;2023-07-13T00:52:00;20.20;93.90
38910;DHT22;24676;51.360;12.354;2023-07-13T00:54:46;20.20;93.50
38910;DHT22;24676;51.360;12.354;2023-07-13T00:57:30;20.20;93.20
38910;DHT22;24676;51.360;12.354;2023-07-13T01:00:16;20.20;91.30
38910;DHT22;24676;51.360;12.354;2023-07-13T01:03:02;20.20;89.90
38910;DHT22;24676;51.360;12.354;2023-07-13T01:05:49;20.10;89.40
38910;DHT22;24676;51.360;12.354;2023-07-13T01:08:34;20.10;87.70
38910;DHT22;24676;51.360;12.354;2023-07-13T01:11:20;20.10;88.50
38910;DHT22;24676;51.360;12.354;2023-07-13T01:14:06;20.10;88.40
38910;DHT22;24676;51.360;12.354;2023-07-13T01:16:50;20.10;85.10
38910;DHT22;24676;51.360;12.354;2023-07-13T01:19:40;20.10;81.10
38910;DHT22;24676;51.360;12.354;2023-07-13T01:22:25;20.10;77.00
38910;DHT22;24676;51.360;12.354;2023-07-13T01:25:10;20.20;74.20
38910;DHT22;24676;51.360;12.354;2023-07-13T01:27:54;20.30;70.30
38910;DHT22;24676;51.360;12.354;2023-07-13T01:30:40;20.30;70.30
38910;DHT22;24676;51.360;12.354;2023-07-13T01:33:25;20.30;69.30
38910;DHT22;24676;51.360;12.354;2023-07-13T01:36:11;20.40;68.80
38910;DHT22;24676;51.360;12.354;2023-07-13T01:38:55;20.40;69.70
38910;DHT22;24676;51.360;12.354;2023-07-13T01:41:39;20.40;68.50
38910;DHT22;24676;51.360;12.354;2023-07-13T01:44:23;20.40;68.30
38910;DHT22;24676;51.360;12.354;2023-07-13T01:47:08;20.30;68.80
38910;DHT22;24676;51.360;12.354;2023-07-13T01:49:52;20.30;68.40
38910;DHT22;24676;51.360;12.354;2023-07-13T01:52:37;20.30;69.70
38910;DHT22;24676;51.360;12.354;2023-07-13T01:55:21;20.20;70.00
38910;DHT22;24676;51.360;12.354;2023-07-13T01:58:06;20.20;69.90
38910;DHT22;24676;51.360;12.354;2023-07-13T02:00:51;20.10;70.10
38910;DHT22;24676;51.360;12.354;2023-07-13T02:03:35;20.10;71.00
38910;DHT22;24676;51.360;12.354;2023-07-13T02:06:19;20.00;71.90
38910;DHT22;24676;51.360;12.354;2023-07-13T02:09:04;20.00;72.50
38910;DHT22;24676;51.360;12.354;2023-07-13T02:11:48;19.90;72.80
38910;DHT22;24676;51.360;12.354;2023-07-13T02:14:32;19.80;73.50
38910;DHT22;24676;51.360;12.354;2023-07-13T02:17:17;19.80;73.80
38910;DHT22;24676;51.360;12.354;2023-07-13T02:20:02;19.70;74.30
38910;DHT22;24676;51.360;12.354;2023-07-13T02:22:47;19.60;75.20
38910;DHT22;24676;51.360;12.354;2023-07-13T02:25:31;19.50;75.60
38910;DHT22;24676;51.360;12.354;2023-07-13T02:28:15;19.40;76.00
38910;DHT22;24676;51.360;12.354;2023-07-13T02:31:11;19.40;77.20
38910;DHT22;24676;51.360;12.354;2023-07-13T02:33:56;19.40;78.10
38910;DHT22;24676;51.360;12.354;2023-07-13T02:36:40;19.40;77.60
38910;DHT22;24676;51.360;12.354;2023-07-13T02:39:25;19.30;77.80
38910;DHT22;24676;51.360;12.354;2023-07-13T02:42:09;19.30;78.30
38910;DHT22;24676;51.360;12.354;2023-07-13T02:44:53;19.10;79.40
38910;DHT22;24676;51.360;12.354;2023-07-13T02:47:38;19.00;80.10
38910;DHT22;24676;51.360;12.354;2023-07-13T02:50:22;18.90;80.70
38910;DHT22;24676;51.360;12.354;2023-07-13T02:53:07;18.90;80.90
38910;DHT22;24676;51.360;12.354;2023-07-13T02:55:51;18.70;81.30
38910;DHT22;24676;51.360;12.354;2023-07-13T02:58:36;18.60;82.50
38910;DHT22;24676;51.360;12.354;2023-07-13T03:01:23;18.60;83.60
38910;DHT22;24676;51.360;12.354;2023-07-13T03:04:08;18.50;84.60
38910;DHT22;24676;51.360;12.354;2023-07-13T03:06:52;18.40;86.00
38910;DHT22;24676;51.360;12.354;2023-07-13T03:09:36;18.40;86.70
38910;DHT22;24676;51.360;12.354;2023-07-13T03:12:20;18.30;87.30
38910;DHT22;24676;51.360;12.354;2023-07-13T03:15:04;18.30;89.60
38910;DHT22;24676;51.360;12.354;2023-07-13T03:17:48;18.30;90.00
38910;DHT22;24676;51.360;12.354;2023-07-13T03:20:34;18.20;90.80
38910;DHT22;24676;51.360;12.354;2023-07-13T03:23:19;18.20;91.60
38910;DHT22;24676;51.360;12.354;2023-07-13T03:26:04;18.10;92.20
38910;DHT22;24676;51.360;12.354;2023-07-13T03:28:48;18.10;93.30
38910;DHT22;24676;51.360;12.354;2023-07-13T03:31:35;18.00;93.70
38910;DHT22;24676;51.360;12.354;2023-07-13T03:34:19;18.10;94.20
38910;DHT22;24676;51.360;12.354;2023-07-13T03:37:04;18.10;94.30
38910;DHT22;24676;51.360;12.354;2023-07-13T03:39:48;18.20;93.90
38910;DHT22;24676;51.360;12.354;2023-07-13T03:42:33;18.20;93.80
38910;DHT22;24676;51.360;12.354;2023-07-13T03:45:17;18.20;93.90
38910;DHT22;24676;51.360;12.354;2023-07-13T03:48:01;18.20;94.20
38910;DHT22;24676;51.360;12.354;2023-07-13T03:50:47;18.20;94.30
38910;DHT22;24676;51.360;12.354;2023-07-13T03:53:31;18.10;95.70
38910;DHT22;24676;51.360;12.354;2023-07-13T03:56:16;18.10;95.50
38910;DHT22;24676;51.360;12.354;2023-07-13T03:59:01;18.10;96.90
38910;DHT22;24676;51.360;12.354;2023-07-13T04:01:46;18.20;96.60
38910;DHT22;24676;51.360;12.354;2023-07-13T04:04:30;18.20;97.00
38910;DHT22;24676;51.360;12.354;2023-07-13T04:07:14;18.20;97.80
38910;DHT22;24676;51.360;12.354;2023-07-13T04:09:58;18.30;98.10
38910;DHT22;24676;51.360;12.354;2023-07-13T04:12:43;18.30;98.00
38910;DHT22;24676;51.360;12.354;2023-07-13T04:15:30;18.30;97.80
38910;DHT22;24676;51.360;12.354;2023-07-13T04:18:15;18.40;97.30
38910;DHT22;24676;51.360;12.354;2023-07-13T04:20:59;18.50;97.30
38910;DHT22;24676;51.360;12.354;2023-07-13T04:23:43;18.50;97.60
38910;DHT22;24676;51.360;12.354;2023-07-13T04:26:28;18.60;96.90
38910;DHT22;24676;51.360;12.354;2023-07-13T04:29:13;18.70;97.00
38910;DHT22;24676;51.360;12.354;2023-07-13T04:31:57;18.80;97.20
38910;DHT22;24676;51.360;12.354;2023-07-13T04:34:41;19.00;96.70
38910;DHT22;24676;51.360;12.354;2023-07-13T04:37:26;19.40;95.80
38910;DHT22;24676;51.360;12.354;2023-07-13T04:40:11;19.80;95.60
38910;DHT22;24676;51.360;12.354;2023-07-13T04:42:56;21.10;92.10
38910;DHT22;24676;51.360;12.354;2023-07-13T04:45:41;22.90;79.90
38910;DHT22;24676;51.360;12.354;2023-07-13T04:48:25;24.40;69.30
38910;DHT22;24676;51.360;12.354;2023-07-13T04:51:10;25.80;60.90
38910;DHT22;24676;51.360;12.354;2023-07-13T04:53:54;27.10;55.80
38910;DHT22;24676;51.360;12.354;2023-07-13T04:56:39;27.70;53.10
38910;DHT22;24676;51.360;12.354;2023-07-13T04:59:23;28.30;51.00
38910;DHT22;24676;51.360;12.354;2023-07-13T05:02:07;29.30;47.80
38910;DHT22;24676;51.360;12.354;2023-07-13T05:04:52;30.00;45.90
38910;DHT22;24676;51.360;12.354;2023-07-13T05:07:36;31.10;43.10
38910;DHT22;24676;51.360;12.354;2023-07-13T05:10:21;32.00;41.50
38910;DHT22;24676;51.360;12.354;2023-07-13T05:13:05;32.90;39.70
38910;DHT22;24676;51.360;12.354;2023-07-13T05:16:00;33.60;38.10
38910;DHT22;24676;51.360;12.354;2023-07-13T05:18:45;34.20;36.90
38910;DHT22;24676;51.360;12.354;2023-07-13T05:21:29;34.70;35.90
38910;DHT22;24676;51.360;12.354;2023-07-13T05:24:13;35.00;34.90
38910;DHT22;24676;51.360;12.354;2023-07-13T05:26:57;35.20;34.40
38910;DHT22;24676;51.360;12.354;2023-07-13T05:29:42;36.00;33.30
38910;DHT22;24676;51.360;12.354;2023-07-13T05:32:26;36.70;32.50
38910;DHT22;24676;51.360;12.354;2023-07-13T05:35:11;37.40;31.00
38910;DHT22;24676;51.360;12.354;2023-07-13T05:37:55;37.60;30.20
38910;DHT22;24676;51.360;12.354;2023-07-13T05:40:39;38.00;30.00
38910;DHT22;24676;51.360;12.354;2023-07-13T05:43:23;38.20;30.00
38910;DHT22;24676;51.360;12.354;2023-07-13T05:46:08;38.80;29.40
38910;DHT22;24676;51.360;12.354;2023-07-13T05:48:52;39.60;28.90
38910;DHT22;24676;51.360;12.354;2023-07-13T05:51:36;40.00;28.80
38910;DHT22;24676;51.360;12.354;2023-07-13T05:54:20;40.30;27.90
38910;DHT22;24676;51.360;12.354;2023-07-13T05:57:05;39.60;28.40
38910;DHT22;24676;51.360;12.354;2023-07-13T05:59:49;39.40;28.50
38910;DHT22;24676;51.360;12.354;2023-07-13T06:02:34;40.20;27.60
38910;DHT22;24676;51.360;12.354;2023-07-13T06:05:18;40.70;27.00
38910;DHT22;24676;51.360;12.354;2023-07-13T06:08:03;40.80;27.00
38910;DHT22;24676;51.360;12.354;2023-07-13T06:10:47;39.40;27.70
38910;DHT22;24676;51.360;12.354;2023-07-13T06:13:31;37.50;29.20
38910;DHT22;24676;51.360;12.354;2023-07-13T06:16:16;37.10;30.60
38910;DHT22;24676;51.360;12.354;2023-07-13T06:19:01;38.20;29.90
38910;DHT22;24676;51.360;12.354;2023-07-13T06:21:45;39.70;28.40
38910;DHT22;24676;51.360;12.354;2023-07-13T06:24:30;40.90;27.00
38910;DHT22;24676;51.360;12.354;2023-07-13T06:27:14;40.00;27.40
38910;DHT22;24676;51.360;12.354;2023-07-13T06:29:59;40.70;27.00
38910;DHT22;24676;51.360;12.354;2023-07-13T06:32:43;41.30;27.00
38910;DHT22;24676;51.360;12.354;2023-07-13T06:35:28;41.60;26.10
38910;DHT22;24676;51.360;12.354;2023-07-13T06:38:12;41.60;26.40
38910;DHT22;24676;51.360;12.354;2023-07-13T06:40:56;42.30;25.50
38910;DHT22;24676;51.360;12.354;2023-07-13T06:43:41;42.00;25.80
38910;DHT22;24676;51.360;12.354;2023-07-13T06:46:26;41.20;26.50
38910;DHT22;24676;51.360;12.354;2023-07-13T06:49:09;40.70;26.10
38910;DHT22;24676;51.360;12.354;2023-07-13T06:51:54;41.20;26.10
38910;DHT22;24676;51.360;12.354;2023-07-13T06:54:38;41.80;25.50
38910;DHT22;24676;51.360;12.354;2023-07-13T06:57:22;41.40;25.70
38910;DHT22;24676;51.360;12.354;2023-07-13T07:00:07;41.00;25.50
38910;DHT22;24676;51.360;12.354;2023-07-13T07:02:54;41.40;25.20
38910;DHT22;24676;51.360;12.354;2023-07-13T07:05:38;40.70;25.90
38910;DHT22;24676;51.360;12.354;2023-07-13T07:08:22;40.10;25.70
38910;DHT22;24676;51.360;12.354;2023-07-13T07:11:13;39.60;26.40
38910;DHT22;24676;51.360;12.354;2023-07-13T07:13:57;39.80;26.30
38910;DHT22;24676;51.360;12.354;2023-07-13T07:16:42;39.00;27.10
38910;DHT22;24676;51.360;12.354;2023-07-13T07:19:29;39.20;26.60
38910;DHT22;24676;51.360;12.354;2023-07-13T07:22:14;37.20;27.80
38910;DHT22;24676;51.360;12.354;2023-07-13T07:24:58;36.20;30.70
38910;DHT22;24676;51.360;12.354;2023-07-13T07:27:42;37.40;29.80
38910;DHT22;24676;51.360;12.354;2023-07-13T07:30:26;38.40;28.50
38910;DHT22;24676;51.360;12.354;2023-07-13T07:33:11;39.60;27.50
38910;DHT22;24676;51.360;12.354;2023-07-13T07:35:55;39.70;26.90
38910;DHT22;24676;51.360;12.354;2023-07-13T07:38:39;40.00;26.50
38910;DHT22;24676;51.360;12.354;2023-07-13T07:41:23;39.20;26.60
38910;DHT22;24676;51.360;12.354;2023-07-13T07:44:08;37.30;27.60
38910;DHT22;24676;51.360;12.354;2023-07-13T07:46:53;35.20;29.40
38910;DHT22;24676;51.360;12.354;2023-07-13T07:49:38;33.50;30.90
38910;DHT22;24676;51.360;12.354;2023-07-13T07:52:22;31.90;32.90
38910;DHT22;24676;51.360;12.354;2023-07-13T07:55:07;30.70;35.30
38910;DHT22;24676;51.360;12.354;2023-07-13T07:57:52;32.70;34.10
38910;DHT22;24676;51.360;12.354;2023-07-13T08:00:36;34.40;30.40
38910;DHT22;24676;51.360;12.354;2023-07-13T08:03:20;33.40;30.60
38910;DHT22;24676;51.360;12.354;2023-07-13T08:06:04;33.00;31.70
38910;DHT22;24676;51.360;12.354;2023-07-13T08:08:49;34.10;30.50
38910;DHT22;24676;51.360;12.354;2023-07-13T08:11:33;37.00;28.50
38910;DHT22;24676;51.360;12.354;2023-07-13T08:14:16;39.50;25.70
38910;DHT22;24676;51.360;12.354;2023-07-13T08:17:01;41.70;23.80
38910;DHT22;24676;51.360;12.354;2023-07-13T08:19:46;42.70;23.00
38910;DHT22;24676;51.360;12.354;2023-07-13T08:22:30;43.10;23.00
38910;DHT22;24676;51.360;12.354;2023-07-13T08:25:14;41.30;23.30
38910;DHT22;24676;51.360;12.354;2023-07-13T08:27:59;39.70;24.40
38910;DHT22;24676;51.360;12.354;2023-07-13T08:30:43;38.10;25.80
38910;DHT22;24676;51.360;12.354;2023-07-13T08:33:27;36.70;26.40
38910;DHT22;24676;51.360;12.354;2023-07-13T08:36:11;35.60;27.10
38910;DHT22;24676;51.360;12.354;2023-07-13T08:38:56;35.30;28.00
38910;DHT22;24676;51.360;12.354;2023-07-13T08:41:40;34.60;29.20
38910;DHT22;24676;51.360;12.354;2023-07-13T08:44:39;34.20;29.00
38910;DHT22;24676;51.360;12.354;2023-07-13T08:47:30;34.00;29.80
38910;DHT22;24676;51.360;12.354;2023-07-13T08:50:18;33.80;29.80
38910;DHT22;24676;51.360;12.354;2023-07-13T08:53:04;33.70;29.40
38910;DHT22;24676;51.360;12.354;2023-07-13T08:55:51;33.30;29.90
38910;DHT22;24676;51.360;12.354;2023-07-13T08:58:41;33.20;31.10
38910;DHT22;24676;51.360;12.354;2023-07-13T09:04:42;33.70;30.40
38910;DHT22;24676;51.360;12.354;2023-07-13T09:10:46;34.40;28.70
38910;DHT22;24676;51.360;12.354;2023-07-13T09:16:46;34.50;28.30
38910;DHT22;24676;51.360;12.354;2023-07-13T09:19:32;32.70;30.00
38910;DHT22;24676;51.360;12.354;2023-07-13T09:22:20;31.30;31.80
38910;DHT22;24676;51.360;12.354;2023-07-13T09:25:15;30.40;32.90
38910;DHT22;24676;51.360;12.354;2023-07-13T09:31:53;30.60;34.80
38910;DHT22;24676;51.360;12.354;2023-07-13T09:34:11;31.10;33.20
38910;DHT22;24676;51.360;12.354;2023-07-13T09:36:56;31.50;32.20
38910;DHT22;24676;51.360;12.354;2023-07-13T09:39:42;31.90;32.70
38910;DHT22;24676;51.360;12.354;2023-07-13T09:42:26;32.10;31.70
38910;DHT22;24676;51.360;12.354;2023-07-13T09:45:26;31.80;31.40
38910;DHT22;24676;51.360;12.354;2023-07-13T09:48:12;31.10;32.80
38910;DHT22;24676;51.360;12.354;2023-07-13T09:51:07;31.00;33.60
38910;DHT22;24676;51.360;12.354;2023-07-13T09:53:56;30.80;33.70
38910;DHT22;24676;51.360;12.354;2023-07-13T09:56:41;30.90;33.70
38910;DHT22;24676;51.360;12.354;2023-07-13T09:59:34;31.40;32.60
38910;DHT22;24676;51.360;12.354;2023-07-13T10:02:30;31.50;32.10
38910;DHT22;24676;51.360;12.354;2023-07-13T10:05:16;31.10;32.80
38910;DHT22;24676;51.360;12.354;2023-07-13T10:08:00;30.90;33.80
38910;DHT22;24676;51.360;12.354;2023-07-13T10:10:46;30.80;34.00
38910;DHT22;24676;51.360;12.354;2023-07-13T10:13:36;30.60;33.80
38910;DHT22;24676;51.360;12.354;2023-07-13T10:16:21;30.50;35.50
38910;DHT22;24676;51.360;12.354;2023-07-13T10:19:21;30.50;34.40
38910;DHT22;24676;51.360;12.354;2023-07-13T10:22:24;30.40;34.50
38910;DHT22;24676;51.360;12.354;2023-07-13T10:25:19;29.90;35.10
38910;DHT22;24676;51.360;12.354;2023-07-13T10:28:30;29.60;36.40
38910;DHT22;24676;51.360;12.354;2023-07-13T10:31:16;31.30;35.20
38910;DHT22;24676;51.360;12.354;2023-07-13T10:34:01;32.60;32.50
38910;DHT22;24676;51.360;12.354;2023-07-13T10:36:47;31.90;32.80
38910;DHT22;24676;51.360;12.354;2023-07-13T10:39:33;31.00;33.70
38910;DHT22;24676;51.360;12.354;2023-07-13T10:42:29;30.70;35.40
38910;DHT22;24676;51.360;12.354;2023-07-13T10:45:20;32.10;34.00
38910;DHT22;24676;51.360;12.354;2023-07-13T10:48:05;33.90;31.20
38910;DHT22;24676;51.360;12.354;2023-07-13T10:50:52;34.60;29.80
38910;DHT22;24676;51.360;12.354;2023-07-13T10:53:38;34.00;30.80
38910;DHT22;24676;51.360;12.354;2023-07-13T10:56:28;33.20;30.20
38910;DHT22;24676;51.360;12.354;2023-07-13T10:59:33;32.30;30.90
38910;DHT22;24676;51.360;12.354;2023-07-13T11:02:26;31.50;31.60
38910;DHT22;24676;51.360;12.354;2023-07-13T11:05:28;30.90;32.70
38910;DHT22;24676;51.360;12.354;2023-07-13T11:08:20;30.70;33.50
38910;DHT22;24676;51.360;12.354;2023-07-13T11:26:00;32.90;29.20
38910;DHT22;24676;51.360;12.354;2023-07-13T11:28:49;32.00;29.80
38910;DHT22;24676;51.360;12.354;2023-07-13T11:31:34;31.40;30.10
38910;DHT22;24676;51.360;12.354;2023-07-13T11:34:29;31.70;29.70
38910;DHT22;24676;51.360;12.354;2023-07-13T11:37:17;32.50;30.10
38910;DHT22;24676;51.360;12.354;2023-07-13T11:40:02;33.30;28.70
38910;DHT22;24676;51.360;12.354;2023-07-13T11:42:46;33.70;28.20
38910;DHT22;24676;51.360;12.354;2023-07-13T11:45:31;34.20;28.10
38910;DHT22;24676;51.360;12.354;2023-07-13T11:48:29;34.90;26.90
38910;DHT22;24676;51.360;12.354;2023-07-13T11:51:26;35.00;27.10
38910;DHT22;24676;51.360;12.354;2023-07-13T11:54:31;34.50;26.80
38910;DHT22;24676;51.360;12.354;2023-07-13T11:57:19;33.30;28.40
38910;DHT22;24676;51.360;12.354;2023-07-13T12:00:15;32.80;29.70
38910;DHT22;24676;51.360;12.354;2023-07-13T12:03:01;33.70;29.20
38910;DHT22;24676;51.360;12.354;2023-07-13T12:06:04;33.90;26.60
38910;DHT22;24676;51.360;12.354;2023-07-13T12:08:49;34.40;26.10
38910;DHT22;24676;51.360;12.354;2023-07-13T12:11:35;34.10;26.40
38910;DHT22;24676;51.360;12.354;2023-07-13T12:14:21;33.80;26.70
38910;DHT22;24676;51.360;12.354;2023-07-13T12:17:19;32.40;28.10
38910;DHT22;24676;51.360;12.354;2023-07-13T12:20:19;32.00;28.80
38910;DHT22;24676;51.360;12.354;2023-07-13T12:23:24;31.30;28.90
38910;DHT22;24676;51.360;12.354;2023-07-13T12:26:09;30.60;29.40
38910;DHT22;24676;51.360;12.354;2023-07-13T12:28:56;30.50;29.90
38910;DHT22;24676;51.360;12.354;2023-07-13T12:31:43;30.30;30.20
38910;DHT22;24676;51.360;12.354;2023-07-13T12:34:28;30.10;30.20
38910;DHT22;24676;51.360;12.354;2023-07-13T12:37:12;30.10;30.90
38910;DHT22;24676;51.360;12.354;2023-07-13T12:39:58;30.30;30.20
38910;DHT22;24676;51.360;12.354;2023-07-13T12:42:42;30.30;29.50
38910;DHT22;24676;51.360;12.354;2023-07-13T12:45:27;30.10;30.00
38910;DHT22;24676;51.360;12.354;2023-07-13T12:48:16;30.30;31.00
38910;DHT22;24676;51.360;12.354;2023-07-13T12:51:01;30.50;30.50
38910;DHT22;24676;51.360;12.354;2023-07-13T12:54:05;30.90;30.10
38910;DHT22;24676;51.360;12.354;2023-07-13T12:56:50;30.80;29.60
38910;DHT22;24676;51.360;12.354;2023-07-13T12:59:36;30.70;30.70
38910;DHT22;24676;51.360;12.354;2023-07-13T13:02:32;30.50;30.10
38910;DHT22;24676;51.360;12.354;2023-07-13T13:05:17;29.90;30.10
38910;DHT22;24676;51.360;12.354;2023-07-13T13:08:01;29.40;31.10
38910;DHT22;24676;51.360;12.354;2023-07-13T13:10:45;29.30;32.30
38910;DHT22;24676;51.360;12.354;2023-07-13T13:13:29;29.10;32.10
38910;DHT22;24676;51.360;12.354;2023-07-13T13:19:19;28.30;33.20
38910;DHT22;24676;51.360;12.354;2023-07-13T13:22:07;28.40;32.60
38910;DHT22;24676;51.360;12.354;2023-07-13T13:24:51;28.70;32.60
38910;DHT22;24676;51.360;12.354;2023-07-13T13:27:35;28.50;32.00
38910;DHT22;24676;51.360;12.354;2023-07-13T13:30:20;28.50;32.30
38910;DHT22;24676;51.360;12.354;2023-07-13T13:33:10;28.70;32.70
38910;DHT22;24676;51.360;12.354;2023-07-13T13:35:56;28.90;33.10
38910;DHT22;24676;51.360;12.354;2023-07-13T13:38:40;28.90;32.70
38910;DHT22;24676;51.360;12.354;2023-07-13T13:41:25;28.90;32.60
38910;DHT22;24676;51.360;12.354;2023-07-13T13:44:10;28.80;33.20
38910;DHT22;24676;51.360;12.354;2023-07-13T13:46:55;28.70;33.10
38910;DHT22;24676;51.360;12.354;2023-07-13T13:49:39;28.50;33.60
38910;DHT22;24676;51.360;12.354;2023-07-13T13:52:24;28.40;34.70
38910;DHT22;24676;51.360;12.354;2023-07-13T13:57:57;28.70;33.20
38910;DHT22;24676;51.360;12.354;2023-07-13T14:00:42;28.80;33.90
38910;DHT22;24676;51.360;12.354;2023-07-13T14:03:29;28.90;33.40
38910;DHT22;24676;51.360;12.354;2023-07-13T14:06:14;28.90;33.10
38910;DHT22;24676;51.360;12.354;2023-07-13T14:09:00;28.80;33.20
38910;DHT22;24676;51.360;12.354;2023-07-13T14:11:46;28.50;33.80
38910;DHT22;24676;51.360;12.354;2023-07-13T14:14:32;28.50;34.00
38910;DHT22;24676;51.360;12.354;2023-07-13T14:17:22;28.60;34.20
38910;DHT22;24676;51.360;12.354;2023-07-13T14:20:11;28.40;34.20
38910;DHT22;24676;51.360;12.354;2023-07-13T14:22:56;28.30;33.80
38910;DHT22;24676;51.360;12.354;2023-07-13T14:25:49;28.30;33.70
38910;DHT22;24676;51.360;12.354;2023-07-13T14:28:34;28.50;33.60
38910;DHT22;24676;51.360;12.354;2023-07-13T14:31:20;28.50;34.00
38910;DHT22;24676;51.360;12.354;2023-07-13T14:34:04;28.50;33.70
38910;DHT22;24676;51.360;12.354;2023-07-13T14:36:49;28.70;33.50
38910;DHT22;24676;51.360;12.354;2023-07-13T14:39:34;28.50;33.10
38910;DHT22;24676;51.360;12.354;2023-07-13T14:42:19;28.10;33.30
38910;DHT22;24676;51.360;12.354;2023-07-13T14:45:03;27.80;33.70
38910;DHT22;24676;51.360;12.354;2023-07-13T14:47:48;27.80;34.00
38910;DHT22;24676;51.360;12.354;2023-07-13T14:50:34;27.80;33.80
38910;DHT22;24676;51.360;12.354;2023-07-13T14:53:20;27.80;34.10
38910;DHT22;24676;51.360;12.354;2023-07-13T14:56:11;27.70;34.60
38910;DHT22;24676;51.360;12.354;2023-07-13T14:58:56;27.50;33.70
38910;DHT22;24676;51.360;12.354;2023-07-13T15:01:40;27.50;34.40
38910;DHT22;24676;51.360;12.354;2023-07-13T15:04:25;27.70;34.20
38910;DHT22;24676;51.360;12.354;2023-07-13T15:07:11;27.90;34.40
38910;DHT22;24676;51.360;12.354;2023-07-13T15:09:56;27.80;33.00
38910;DHT22;24676;51.360;12.354;2023-07-13T15:12:40;27.70;33.80
38910;DHT22;24676;51.360;12.354;2023-07-13T15:15:24;27.50;34.00
38910;DHT22;24676;51.360;12.354;2023-07-13T15:18:11;27.40;34.60
38910;DHT22;24676;51.360;12.354;2023-07-13T15:20:56;27.40;35.10
38910;DHT22;24676;51.360;12.354;2023-07-13T15:23:44;27.40;35.10
38910;DHT22;24676;51.360;12.354;2023-07-13T15:26:29;27.50;35.10
38910;DHT22;24676;51.360;12.354;2023-07-13T15:29:14;27.70;34.50
38910;DHT22;24676;51.360;12.354;2023-07-13T15:31:59;27.60;34.10
38910;DHT22;24676;51.360;12.354;2023-07-13T15:34:43;27.50;34.50
38910;DHT22;24676;51.360;12.354;2023-07-13T15:37:27;27.40;34.80
38910;DHT22;24676;51.360;12.354;2023-07-13T15:40:12;27.30;34.20
38910;DHT22;24676;51.360;12.354;2023-07-13T15:42:57;27.30;35.10
38910;DHT22;24676;51.360;12.354;2023-07-13T15:45:41;27.10;35.70
38910;DHT22;24676;51.360;12.354;2023-07-13T15:48:27;27.10;35.80
38910;DHT22;24676;51.360;12.354;2023-07-13T15:54:04;27.20;35.60
38910;DHT22;24676;51.360;12.354;2023-07-13T15:56:53;27.40;36.20
38910;DHT22;24676;51.360;12.354;2023-07-13T15:59:37;27.50;35.90
38910;DHT22;24676;51.360;12.354;2023-07-13T16:02:22;27.60;35.60
38910;DHT22;24676;51.360;12.354;2023-07-13T16:05:06;27.70;35.40
38910;DHT22;24676;51.360;12.354;2023-07-13T16:07:52;27.60;34.70
38910;DHT22;24676;51.360;12.354;2023-07-13T16:10:38;27.50;34.60
38910;DHT22;24676;51.360;12.354;2023-07-13T16:13:24;27.30;34.70
38910;DHT22;24676;51.360;12.354;2023-07-13T16:16:11;27.20;34.80
38910;DHT22;24676;51.360;12.354;2023-07-13T16:18:57;27.00;35.60
38910;DHT22;24676;51.360;12.354;2023-07-13T16:21:45;26.80;35.90
38910;DHT22;24676;51.360;12.354;2023-07-13T16:24:29;26.80;36.50
38910;DHT22;24676;51.360;12.354;2023-07-13T16:27:15;26.70;36.70
38910;DHT22;24676;51.360;12.354;2023-07-13T16:29:59;26.50;37.10
38910;DHT22;24676;51.360;12.354;2023-07-13T16:32:44;26.50;37.20
38910;DHT22;24676;51.360;12.354;2023-07-13T16:35:30;26.30;37.70
38910;DHT22;24676;51.360;12.354;2023-07-13T16:38:20;26.30;38.00
38910;DHT22;24676;51.360;12.354;2023-07-13T16:41:05;26.30;38.40
38910;DHT22;24676;51.360;12.354;2023-07-13T16:43:53;26.30;38.10
38910;DHT22;24676;51.360;12.354;2023-07-13T16:46:38;26.40;38.50
38910;DHT22;24676;51.360;12.354;2023-07-13T16:49:29;26.40;38.60
38910;DHT22;24676;51.360;12.354;2023-07-13T16:52:16;26.30;38.40
38910;DHT22;24676;51.360;12.354;2023-07-13T16:55:03;26.20;38.60
38910;DHT22;24676;51.360;12.354;2023-07-13T16:57:48;26.10;38.80
38910;DHT22;24676;51.360;12.354;2023-07-13T17:00:33;26.00;39.70
38910;DHT22;24676;51.360;12.354;2023-07-13T17:03:20;25.90;39.10
38910;DHT22;24676;51.360;12.354;2023-07-13T17:06:21;25.80;40.20
38910;DHT22;24676;51.360;12.354;2023-07-13T17:09:11;25.80;39.60
38910;DHT22;24676;51.360;12.354;2023-07-13T17:11:57;25.70;39.70
38910;DHT22;24676;51.360;12.354;2023-07-13T17:14:41;25.70;40.00
38910;DHT22;24676;51.360;12.354;2023-07-13T17:17:29;25.70;40.10
38910;DHT22;24676;51.360;12.354;2023-07-13T17:20:23;25.50;40.10
38910;DHT22;24676;51.360;12.354;2023-07-13T17:26:02;25.40;40.50
38910;DHT22;24676;51.360;12.354;2023-07-13T17:28:47;25.30;40.40
38910;DHT22;24676;51.360;12.354;2023-07-13T17:31:32;25.20;40.80
38910;DHT22;24676;51.360;12.354;2023-07-13T17:34:16;25.20;41.10
38910;DHT22;24676;51.360;12.354;2023-07-13T17:37:03;25.20;41.60
38910;DHT22;24676;51.360;12.354;2023-07-13T17:39:48;25.30;41.10
38910;DHT22;24676;51.360;12.354;2023-07-13T17:42:32;25.20;41.40
38910;DHT22;24676;51.360;12.354;2023-07-13T17:45:16;25.20;41.30
38910;DHT22;24676;51.360;12.354;2023-07-13T17:48:03;25.10;41.60
38910;DHT22;24676;51.360;12.354;2023-07-13T17:50:50;25.00;41.70
38910;DHT22;24676;51.360;12.354;2023-07-13T17:53:35;24.80;41.90